createdAt,value
2019-05-05T00:00:59.565Z,65.03
2019-05-05T00:06:08.919Z,65.41
2019-05-05T00:11:58.903Z,65.50
2019-05-05T00:17:14.500Z,65.49
2019-05-05T00:22:20.517Z,65.58
2019-05-05T00:27:30.603Z,64.51
2019-05-05T00:32:38.072Z,65.71
2019-05-05T00:42:48.001Z,65.48
2019-05-05T00:47:59.257Z,65.39
2019-05-05T00:53:05.714Z,65.68
2019-05-05T00:58:11.164Z,65.84
2019-05-05T01:03:18.469Z,65.82
2019-05-05T01:08:26.675Z,65.75
2019-05-05T01:13:32.200Z,65.75
2019-05-05T01:18:37.768Z,66.04
2019-05-05T01:23:45.555Z,65.95
2019-05-05T01:28:53.186Z,66.53
2019-05-05T01:34:24.329Z,67.48
2019-05-05T01:40:00.739Z,66.58
2019-05-05T01:45:15.694Z,66.37
2019-05-05T01:50:24.872Z,66.55
2019-05-05T01:55:30.686Z,66.40
2019-05-05T02:00:36.797Z,66.63
2019-05-05T02:05:45.547Z,66.60
2019-05-05T02:10:51.062Z,65.84
2019-05-05T02:15:57.268Z,65.43
2019-05-05T02:21:09.806Z,65.43
2019-05-05T02:26:16.055Z,66.41
2019-05-05T02:31:35.962Z,66.72
2019-05-05T02:36:41.945Z,66.72
2019-05-05T02:41:49.729Z,65.08
2019-05-05T02:47:18.767Z,65.81
2019-05-05T02:52:25.089Z,65.56
2019-05-05T02:57:31.100Z,65.38
2019-05-05T03:02:43.472Z,65.56
2019-05-05T03:07:49.108Z,66.22
2019-05-05T03:12:55.833Z,65.22
2019-05-05T03:18:04.813Z,66.41
2019-05-05T03:23:13.904Z,65.88
2019-05-05T03:28:19.958Z,65.19
2019-05-05T03:33:25.860Z,65.22
2019-05-05T03:38:33.685Z,66.32
2019-05-05T03:43:59.349Z,65.82
2019-05-05T03:49:09.797Z,67.50
2019-05-05T03:54:15.701Z,66.75
2019-05-05T03:59:24.267Z,66.40
2019-05-05T04:04:33.568Z,65.78
2019-05-05T04:09:39.119Z,66.29
2019-05-05T04:14:46.465Z,65.86
2019-05-05T04:19:56.962Z,65.86
2019-05-05T04:25:04.599Z,65.42
2019-05-05T04:30:10.610Z,66.35
2019-05-05T04:35:17.224Z,66.46
2019-05-05T04:40:24.058Z,65.20
2019-05-05T04:45:30.022Z,65.62
2019-05-05T04:50:54.443Z,65.09
2019-05-05T04:56:04.239Z,65.22
2019-05-05T05:01:09.796Z,64.52
2019-05-05T05:06:24.683Z,63.55
2019-05-05T05:11:30.179Z,61.56
2019-05-05T05:21:39.595Z,63.33
2019-05-05T05:26:46.364Z,62.96
2019-05-05T05:31:54.633Z,62.33
2019-05-05T05:37:00.663Z,60.71
2019-05-05T05:42:08.363Z,60.83
2019-05-05T05:47:35.832Z,60.79
2019-05-05T05:52:44.823Z,61.68
2019-05-05T05:57:51.189Z,65.82
2019-05-05T06:02:57.623Z,64.64
2019-05-05T06:08:04.772Z,62.94
2019-05-05T06:13:14.873Z,61.47
2019-05-05T06:18:19.350Z,60.34
2019-05-05T06:23:31.222Z,59.30
2019-05-05T06:28:36.739Z,56.83
2019-05-05T06:33:43.829Z,55.65
2019-05-05T06:38:49.443Z,54.81
2019-05-05T06:44:10.857Z,54.89
2019-05-05T06:49:16.974Z,60.15
2019-05-05T06:54:24.148Z,56.86
2019-05-05T06:59:29.994Z,55.39
2019-05-05T07:04:36.359Z,55.02
2019-05-05T07:09:44.093Z,55.48
2019-05-05T07:14:54.618Z,54.41
2019-05-05T07:20:01.686Z,54.85
2019-05-05T07:25:08.575Z,54.63
2019-05-05T07:30:14.748Z,56.44
2019-05-05T07:35:52.460Z,56.97
2019-05-05T07:40:48.753Z,61.20
2019-05-05T07:45:58.861Z,61.57
2019-05-05T07:51:05.478Z,59.50
2019-05-05T07:56:11.121Z,58.10
2019-05-05T08:01:16.782Z,57.03
2019-05-05T08:06:28.174Z,56.56
2019-05-05T08:11:34.396Z,52.52
2019-05-05T08:17:04.103Z,51.73
2019-05-05T08:22:09.706Z,52.50
2019-05-05T08:27:37.505Z,49.20
2019-05-05T08:32:43.721Z,49.40
2019-05-05T08:37:49.474Z,51.56
2019-05-05T08:42:55.199Z,51.29
2019-05-05T08:48:00.766Z,52.73
2019-05-05T08:53:08.480Z,52.03
2019-05-05T08:58:16.093Z,46.86
2019-05-05T09:03:24.317Z,45.68
2019-05-05T09:08:30.832Z,46.64
2019-05-05T09:13:37.277Z,45.34
2019-05-05T09:18:59.509Z,43.93
2019-05-05T09:24:35.714Z,44.78
2019-05-05T09:29:48.335Z,47.55
2019-05-05T09:34:54.355Z,47.58
2019-05-05T09:40:00.248Z,45.04
2019-05-05T09:45:09.934Z,41.66
2019-05-05T09:50:15.703Z,41.55
2019-05-05T09:55:21.391Z,44.73
2019-05-05T10:00:34.865Z,44.71
2019-05-05T10:05:41.986Z,42.77
2019-05-05T10:10:49.292Z,43.15
2019-05-05T10:15:55.903Z,42.73
2019-05-05T10:21:02.008Z,40.31
2019-05-05T10:26:14.959Z,40.09
2019-05-05T10:31:24.431Z,40.24
2019-05-05T10:36:30.348Z,39.84
2019-05-05T10:41:40.444Z,37.63
2019-05-05T10:46:46.482Z,38.07
2019-05-05T10:51:54.172Z,38.13
2019-05-05T10:56:59.445Z,40.52
2019-05-05T11:02:05.389Z,37.16
2019-05-05T11:07:11.410Z,38.38
2019-05-05T11:12:19.771Z,37.27
2019-05-05T11:17:25.435Z,37.31
2019-05-05T11:22:31.012Z,36.43
2019-05-05T11:27:37.062Z,37.93
2019-05-05T11:33:03.877Z,37.80
2019-05-05T11:38:10.739Z,38.59
2019-05-05T11:43:17.518Z,37.95
2019-05-05T11:48:24.034Z,38.65
2019-05-05T11:53:30.336Z,39.28
2019-05-05T11:58:37.306Z,38.64
2019-05-05T12:03:44.433Z,37.50
2019-05-05T12:08:51.950Z,33.74
2019-05-05T12:13:58.073Z,35.88
2019-05-05T12:19:13.860Z,33.89
2019-05-05T12:24:26.250Z,33.44
2019-05-05T12:29:37.661Z,33.18
2019-05-05T12:34:45.057Z,33.72
2019-05-05T12:39:54.620Z,36.02
2019-05-05T12:45:04.898Z,32.87
2019-05-05T12:50:11.391Z,36.68
2019-05-05T12:55:16.952Z,37.73
2019-05-05T13:00:23.302Z,37.77
2019-05-05T13:05:28.935Z,41.26
2019-05-05T13:10:34.580Z,38.34
2019-05-05T13:15:41.553Z,39.11
2019-05-05T13:21:04.269Z,42.74
2019-05-05T13:26:19.459Z,40.90
2019-05-05T13:31:25.067Z,38.11
2019-05-05T13:36:33.346Z,37.17
2019-05-05T13:41:41.959Z,36.12
2019-05-05T13:46:47.571Z,34.98
2019-05-05T13:51:55.257Z,35.80
2019-05-05T13:57:04.281Z,37.29
2019-05-05T14:02:11.114Z,35.00
2019-05-05T14:07:18.370Z,37.63
2019-05-05T14:12:25.793Z,38.09
2019-05-05T14:17:33.015Z,36.29
2019-05-05T14:22:40.193Z,36.22
2019-05-05T14:27:49.227Z,35.11
2019-05-05T14:32:57.145Z,35.18
2019-05-05T14:38:07.807Z,34.92
2019-05-05T14:43:19.405Z,34.31
2019-05-05T14:48:25.041Z,33.48
2019-05-05T14:53:39.483Z,36.33
2019-05-05T14:58:45.564Z,39.50
2019-05-05T15:03:53.509Z,42.60
2019-05-05T15:09:24.732Z,42.36
2019-05-05T15:14:35.054Z,43.75
2019-05-05T15:19:44.287Z,42.90
2019-05-05T15:24:51.008Z,43.06
2019-05-05T15:30:01.087Z,40.81
2019-05-05T15:35:07.957Z,39.17
2019-05-05T15:40:21.633Z,37.35
2019-05-05T15:45:30.138Z,38.02
2019-05-05T15:50:39.604Z,35.39
2019-05-05T15:55:50.353Z,35.25
2019-05-05T16:00:58.227Z,37.23
2019-05-05T16:06:06.151Z,37.18
2019-05-05T16:11:16.911Z,35.91
2019-05-05T16:16:34.123Z,34.38
2019-05-05T16:21:47.588Z,34.92
2019-05-05T16:26:55.560Z,34.73
2019-05-05T16:32:05.484Z,34.82
2019-05-05T16:37:14.293Z,35.50
2019-05-05T16:42:27.669Z,37.46
2019-05-05T16:47:34.211Z,38.93
2019-05-05T16:52:46.844Z,39.61
2019-05-05T16:57:55.014Z,39.11
2019-05-05T17:03:04.175Z,39.75
2019-05-05T17:08:17.172Z,39.83
2019-05-05T17:13:40.515Z,39.80
2019-05-05T17:19:06.145Z,39.96
2019-05-05T17:24:18.057Z,39.57
2019-05-05T17:29:26.516Z,41.41
2019-05-05T17:34:34.060Z,41.52
2019-05-05T17:39:51.879Z,41.38
2019-05-05T17:45:24.554Z,40.97
2019-05-05T17:50:49.243Z,41.65
2019-05-05T17:55:57.239Z,41.45
2019-05-05T18:01:05.388Z,42.69
2019-05-05T18:06:30.112Z,42.37
2019-05-05T18:12:04.447Z,41.50
2019-05-05T18:17:10.487Z,42.16
2019-05-05T18:22:19.505Z,42.78
2019-05-05T18:27:25.465Z,43.77
2019-05-05T18:32:31.323Z,43.17
2019-05-05T18:37:37.336Z,43.97
2019-05-05T18:42:44.624Z,45.29
2019-05-05T18:47:50.952Z,47.13
2019-05-05T18:52:56.806Z,47.50
2019-05-05T18:58:06.529Z,47.70
2019-05-05T19:03:20.559Z,48.07
2019-05-05T19:08:30.286Z,49.04
2019-05-05T19:13:38.195Z,49.15
2019-05-05T19:18:44.758Z,50.25
2019-05-05T19:23:54.189Z,49.36
2019-05-05T19:29:07.367Z,50.42
2019-05-05T19:34:18.992Z,50.80
2019-05-05T19:39:25.216Z,50.37
2019-05-05T19:44:33.710Z,51.02
2019-05-05T19:49:50.154Z,50.36
2019-05-05T19:55:21.038Z,50.70
2019-05-05T20:00:31.371Z,50.28
2019-05-05T20:05:38.105Z,48.97
2019-05-05T20:10:47.805Z,49.45
2019-05-05T20:16:06.187Z,50.32
2019-05-05T20:21:11.865Z,50.21
2019-05-05T20:26:17.618Z,50.22
2019-05-05T20:31:29.095Z,50.56
2019-05-05T20:36:35.404Z,51.90
2019-05-05T20:41:43.595Z,51.90
2019-05-05T20:46:50.920Z,50.65
2019-05-05T20:51:56.632Z,50.44
2019-05-05T20:57:10.739Z,50.59
2019-05-05T21:02:16.255Z,51.97
2019-05-05T21:07:26.262Z,53.09
2019-05-05T21:12:41.723Z,52.71
2019-05-05T21:17:37.359Z,52.87
2019-05-05T21:23:03.665Z,51.63
2019-05-05T21:28:11.207Z,52.63
2019-05-05T21:33:17.942Z,53.57
2019-05-05T21:38:23.490Z,55.01
2019-05-05T21:43:33.184Z,53.00
2019-05-05T21:48:39.219Z,52.68
2019-05-05T21:53:53.773Z,54.19
2019-05-05T21:59:00.023Z,56.53
2019-05-05T22:04:12.642Z,57.24
2019-05-05T22:09:20.199Z,56.74
2019-05-05T22:14:25.764Z,57.69
2019-05-05T22:19:34.510Z,56.28
2019-05-05T22:24:40.692Z,57.72
2019-05-05T22:29:48.556Z,56.97
2019-05-05T22:34:54.778Z,57.48
2019-05-05T22:40:01.100Z,58.02
2019-05-05T22:45:07.626Z,58.54
2019-05-05T22:50:13.923Z,58.65
2019-05-05T22:55:21.427Z,57.13
2019-05-05T23:00:30.832Z,56.68
2019-05-05T23:05:49.664Z,57.95
2019-05-05T23:10:56.183Z,57.35
2019-05-05T23:16:16.949Z,57.02
2019-05-05T23:21:34.286Z,57.50
2019-05-05T23:26:43.875Z,58.57
2019-05-05T23:31:53.818Z,58.08
2019-05-05T23:37:00.030Z,58.49
2019-05-05T23:42:06.163Z,57.82
2019-05-05T23:47:13.724Z,57.62
2019-05-05T23:52:19.095Z,58.13
2019-05-05T23:57:24.615Z,58.68
